createdAt,value
2022-12-31T00:01:39.124Z,0.98
2022-12-31T00:04:05.616Z,1.10
2022-12-31T00:06:32.595Z,1.20
2022-12-31T00:08:59.108Z,1.42
2022-12-31T00:11:25.613Z,1.67
2022-12-31T00:13:52.103Z,1.60
2022-12-31T00:16:19.123Z,1.92
2022-12-31T00:18:45.697Z,1.20
2022-12-31T00:21:12.182Z,1.05
2022-12-31T00:23:38.631Z,1.40
2022-12-31T00:26:05.084Z,1.73
2022-12-31T00:28:31.583Z,1.80
2022-12-31T00:30:58.053Z,1.08
2022-12-31T00:33:24.502Z,2.40
2022-12-31T00:35:50.996Z,0.85
2022-12-31T00:38:17.993Z,1.10
2022-12-31T00:40:44.486Z,1.38
2022-12-31T00:43:10.937Z,1.48
2022-12-31T00:45:37.376Z,1.17
2022-12-31T00:48:03.850Z,0.73
2022-12-31T00:50:30.291Z,0.77
2022-12-31T00:52:57.245Z,0.98
2022-12-31T00:55:23.672Z,0.90
2022-12-31T00:57:50.140Z,1.13
2022-12-31T01:00:16.593Z,0.98
2022-12-31T01:02:43.746Z,1.45
2022-12-31T01:05:10.893Z,0.55
2022-12-31T01:07:37.364Z,1.67
2022-12-31T01:10:03.849Z,0.73
2022-12-31T01:12:30.333Z,0.73
2022-12-31T01:14:56.818Z,1.48
2022-12-31T01:17:23.262Z,0.75
2022-12-31T01:19:49.693Z,0.70
2022-12-31T01:22:16.183Z,0.93
2022-12-31T01:24:43.149Z,0.68
2022-12-31T01:27:09.588Z,0.70
2022-12-31T01:29:36.060Z,0.60
2022-12-31T01:32:02.578Z,0.68
2022-12-31T01:34:29.085Z,0.70
2022-12-31T01:36:55.579Z,2.08
2022-12-31T01:39:22.089Z,1.13
2022-12-31T01:41:49.082Z,0.85
2022-12-31T01:44:15.523Z,0.57
2022-12-31T01:46:42.503Z,1.10
2022-12-31T01:49:09.010Z,0.73
2022-12-31T01:51:35.479Z,0.93
2022-12-31T01:54:01.965Z,1.45
2022-12-31T01:56:28.955Z,0.60
2022-12-31T01:58:55.959Z,1.10
2022-12-31T02:01:23.021Z,0.83
2022-12-31T02:03:49.624Z,5.17
2022-12-31T02:06:16.617Z,0.75
2022-12-31T02:08:43.606Z,0.50
2022-12-31T02:11:10.105Z,2.45
2022-12-31T02:13:36.558Z,0.95
2022-12-31T02:16:03.619Z,0.25
2022-12-31T02:18:30.152Z,0.47
2022-12-31T02:20:56.616Z,0.60
2022-12-31T02:23:23.317Z,1.02
2022-12-31T02:25:49.965Z,0.52
2022-12-31T02:28:16.412Z,1.27
2022-12-31T02:30:42.895Z,0.52
2022-12-31T02:33:09.353Z,0.77
2022-12-31T02:35:36.300Z,0.65
2022-12-31T02:38:02.778Z,0.70
2022-12-31T02:40:29.705Z,0.90
2022-12-31T02:42:56.639Z,0.70
2022-12-31T02:45:23.103Z,1.38
2022-12-31T02:47:49.582Z,0.68
2022-12-31T02:50:16.070Z,2.17
2022-12-31T02:52:43.064Z,1.02
2022-12-31T02:55:09.555Z,0.40
2022-12-31T02:57:36.009Z,0.47
2022-12-31T03:00:02.464Z,1.48
2022-12-31T03:02:29.055Z,0.65
2022-12-31T03:04:55.611Z,0.90
2022-12-31T03:07:22.091Z,0.65
2022-12-31T03:09:48.550Z,0.32
2022-12-31T03:12:15.012Z,0.85
2022-12-31T03:14:41.517Z,0.95
2022-12-31T03:17:07.988Z,0.65
2022-12-31T03:19:34.467Z,0.98
2022-12-31T03:22:00.952Z,1.15
2022-12-31T03:24:27.462Z,1.10
2022-12-31T03:26:53.919Z,0.63
2022-12-31T03:29:20.413Z,0.45
2022-12-31T03:31:46.888Z,1.52
2022-12-31T03:34:13.483Z,0.60
2022-12-31T03:36:40.458Z,1.23
2022-12-31T03:39:06.939Z,1.20
2022-12-31T03:41:33.392Z,0.95
2022-12-31T03:43:59.887Z,0.40
2022-12-31T03:46:26.826Z,0.80
2022-12-31T03:48:53.297Z,0.55
2022-12-31T03:51:19.774Z,0.52
2022-12-31T03:53:46.285Z,0.40
2022-12-31T03:56:13.222Z,0.95
2022-12-31T03:58:39.676Z,1.40
2022-12-31T04:01:06.204Z,0.30
2022-12-31T04:03:32.754Z,0.20
2022-12-31T04:05:59.697Z,1.45
2022-12-31T04:08:26.181Z,1.02
2022-12-31T04:10:52.622Z,0.50
2022-12-31T04:13:19.328Z,0.68
2022-12-31T04:15:46.320Z,1.10
2022-12-31T04:18:12.764Z,1.83
2022-12-31T04:20:39.481Z,0.65
2022-12-31T04:23:06.447Z,1.02
2022-12-31T04:25:32.889Z,1.17
2022-12-31T04:27:59.326Z,0.55
2022-12-31T04:30:25.830Z,0.50
2022-12-31T04:32:52.806Z,1.27
2022-12-31T04:35:19.296Z,1.02
2022-12-31T04:37:45.751Z,0.52
2022-12-31T04:40:12.274Z,0.52
2022-12-31T04:42:39.275Z,0.90
2022-12-31T04:45:05.728Z,0.30
2022-12-31T04:47:32.246Z,0.50
2022-12-31T04:49:58.699Z,1.85
2022-12-31T04:52:25.651Z,0.93
2022-12-31T04:54:52.135Z,1.65
2022-12-31T04:57:18.648Z,0.45
2022-12-31T04:59:45.136Z,1.65
2022-12-31T05:02:11.758Z,0.90
2022-12-31T05:04:38.378Z,0.90
2022-12-31T05:07:04.850Z,0.93
2022-12-31T05:09:31.295Z,0.77
2022-12-31T05:11:57.760Z,0.82
2022-12-31T05:14:24.259Z,0.88
2022-12-31T05:16:50.807Z,0.73
2022-12-31T05:19:17.373Z,1.65
2022-12-31T05:21:43.872Z,0.85
2022-12-31T05:24:10.832Z,0.88
2022-12-31T05:26:37.271Z,0.52
2022-12-31T05:29:03.742Z,1.30
2022-12-31T05:31:30.699Z,0.60
2022-12-31T05:33:57.144Z,0.93
2022-12-31T05:36:23.599Z,0.80
2022-12-31T05:38:50.067Z,0.50
2022-12-31T05:41:16.519Z,0.75
2022-12-31T05:43:43.549Z,0.70
2022-12-31T05:46:10.073Z,0.93
2022-12-31T05:48:36.649Z,0.47
2022-12-31T05:51:03.141Z,1.23
2022-12-31T05:53:29.654Z,1.10
2022-12-31T05:55:56.132Z,1.30
2022-12-31T05:58:22.583Z,0.73
2022-12-31T06:00:49.055Z,0.90
2022-12-31T06:03:16.188Z,1.85
2022-12-31T06:05:42.746Z,1.23
2022-12-31T06:08:09.202Z,2.15
2022-12-31T06:10:35.645Z,1.17
2022-12-31T06:13:02.598Z,0.30
2022-12-31T06:15:29.060Z,1.27
2022-12-31T06:17:55.561Z,0.70
2022-12-31T06:20:40.612Z,1.20
2022-12-31T06:23:07.200Z,1.33
2022-12-31T06:25:33.672Z,1.10
2022-12-31T06:28:00.205Z,0.77
2022-12-31T06:30:26.696Z,0.93
2022-12-31T06:32:53.220Z,1.92
2022-12-31T06:35:19.710Z,1.67
2022-12-31T06:37:46.202Z,2.20
2022-12-31T06:40:12.666Z,1.85
2022-12-31T06:42:39.655Z,1.10
2022-12-31T06:45:06.135Z,2.27
2022-12-31T06:47:32.615Z,1.42
2022-12-31T06:49:59.126Z,0.70
2022-12-31T06:52:25.634Z,2.67
2022-12-31T06:54:52.073Z,3.25
2022-12-31T06:57:18.507Z,0.93
2022-12-31T06:59:44.973Z,4.13
2022-12-31T07:02:11.477Z,4.20
2022-12-31T07:04:38.518Z,1.33
2022-12-31T07:07:05.010Z,4.27
2022-12-31T07:09:31.499Z,3.03
2022-12-31T07:11:58.472Z,4.03
2022-12-31T07:14:24.972Z,2.00
2022-12-31T07:16:51.419Z,0.20
2022-12-31T07:19:17.878Z,0.50
2022-12-31T07:21:44.874Z,1.40
2022-12-31T07:24:11.347Z,1.00
2022-12-31T07:26:37.836Z,5.85
2022-12-31T07:29:04.273Z,3.38
2022-12-31T07:31:31.223Z,0.60
2022-12-31T07:33:57.673Z,4.88
2022-12-31T07:36:24.119Z,0.65
2022-12-31T07:38:50.614Z,7.55
2022-12-31T07:41:17.104Z,3.20
2022-12-31T07:43:44.049Z,1.45
2022-12-31T07:46:11.027Z,1.65
2022-12-31T07:48:37.532Z,1.75
2022-12-31T07:51:04.050Z,3.35
2022-12-31T07:53:30.528Z,3.85
2022-12-31T07:55:56.979Z,9.00
2022-12-31T07:58:23.482Z,4.10
2022-12-31T08:00:50.521Z,4.93
2022-12-31T08:03:17.057Z,3.00
2022-12-31T08:05:43.566Z,0.73
2022-12-31T08:08:10.063Z,5.25
2022-12-31T08:10:37.012Z,8.35
2022-12-31T08:13:03.522Z,10.95
2022-12-31T08:15:30.845Z,5.32
2022-12-31T08:17:57.446Z,3.33
2022-12-31T08:20:23.901Z,10.75
2022-12-31T08:22:50.348Z,5.70
2022-12-31T08:25:17.343Z,3.03
2022-12-31T08:27:43.820Z,1.17
2022-12-31T08:30:10.311Z,1.73
2022-12-31T08:32:36.808Z,1.33
2022-12-31T08:35:03.285Z,1.55
2022-12-31T08:37:29.728Z,1.75
2022-12-31T08:39:56.193Z,2.20
2022-12-31T08:42:22.658Z,2.63
2022-12-31T08:44:49.134Z,4.10
2022-12-31T08:47:16.125Z,8.27
2022-12-31T08:49:42.557Z,5.22
2022-12-31T08:52:09.015Z,1.05
2022-12-31T08:54:35.462Z,2.30
2022-12-31T08:57:02.479Z,0.93
2022-12-31T08:59:28.928Z,1.60
2022-12-31T09:01:55.469Z,0.88
2022-12-31T09:04:22.087Z,1.20
2022-12-31T09:06:49.097Z,8.38
2022-12-31T09:09:16.038Z,4.28
2022-12-31T09:11:42.980Z,2.55
2022-12-31T09:14:09.472Z,0.65
2022-12-31T09:16:35.983Z,5.60
2022-12-31T09:19:02.485Z,3.00
2022-12-31T09:21:28.963Z,0.77
2022-12-31T09:23:55.460Z,1.63
2022-12-31T09:26:21.924Z,2.28
2022-12-31T09:28:48.376Z,5.43
2022-12-31T09:31:14.947Z,6.57
2022-12-31T09:33:41.493Z,5.22
2022-12-31T09:36:07.962Z,1.90
2022-12-31T09:38:34.401Z,9.13
2022-12-31T09:41:00.881Z,6.13
2022-12-31T09:43:27.374Z,3.30
2022-12-31T09:45:54.363Z,5.22
2022-12-31T09:48:20.836Z,2.90
2022-12-31T09:50:47.278Z,7.15
2022-12-31T09:53:13.780Z,4.00
2022-12-31T09:55:40.752Z,8.75
2022-12-31T09:58:07.279Z,4.53
2022-12-31T10:00:33.756Z,5.28
2022-12-31T10:03:00.284Z,4.63
2022-12-31T10:05:26.776Z,9.10
2022-12-31T10:07:53.870Z,5.80
2022-12-31T10:10:20.403Z,5.80
2022-12-31T10:12:47.380Z,8.82
2022-12-31T10:15:13.838Z,7.90
2022-12-31T10:17:40.288Z,10.00
2022-12-31T10:20:06.755Z,6.20
2022-12-31T10:22:33.195Z,7.55
2022-12-31T10:24:59.679Z,4.10
2022-12-31T10:27:26.646Z,5.22
2022-12-31T10:29:53.086Z,6.80
2022-12-31T10:32:19.534Z,5.95
2022-12-31T10:34:45.988Z,9.07
2022-12-31T10:37:12.461Z,3.33
2022-12-31T10:39:38.938Z,11.18
2022-12-31T10:42:05.419Z,8.10
2022-12-31T10:44:31.850Z,8.05
2022-12-31T10:46:58.351Z,6.28
2022-12-31T10:49:24.847Z,6.15
2022-12-31T10:51:51.335Z,8.18
2022-12-31T10:54:17.849Z,7.40
2022-12-31T10:56:44.298Z,11.65
2022-12-31T10:59:11.263Z,5.65
2022-12-31T11:01:37.832Z,7.80
2022-12-31T11:04:04.408Z,4.78
2022-12-31T11:06:30.885Z,4.78
2022-12-31T11:08:57.837Z,5.88
2022-12-31T11:11:24.272Z,3.70
2022-12-31T11:13:50.780Z,5.68
2022-12-31T11:16:17.301Z,4.60
2022-12-31T11:18:43.784Z,2.72
2022-12-31T11:21:10.237Z,5.07
2022-12-31T11:23:37.206Z,5.15
2022-12-31T11:26:04.150Z,3.05
2022-12-31T11:28:30.658Z,5.72
2022-12-31T11:30:57.222Z,4.53
2022-12-31T11:33:23.703Z,2.35
2022-12-31T11:35:50.154Z,3.80
2022-12-31T11:38:16.593Z,3.65
2022-12-31T11:40:43.080Z,6.15
2022-12-31T11:43:09.598Z,4.82
2022-12-31T11:45:36.051Z,4.75
2022-12-31T11:50:49.469Z,5.10
2022-12-31T11:53:15.975Z,5.90
2022-12-31T11:55:42.415Z,5.07
2022-12-31T11:58:09.411Z,1.65
2022-12-31T12:00:35.899Z,3.60
2022-12-31T12:03:02.888Z,5.32
2022-12-31T12:05:29.831Z,3.35
2022-12-31T12:07:56.258Z,5.25
2022-12-31T12:10:22.734Z,3.70
2022-12-31T12:12:49.671Z,4.65
2022-12-31T12:15:16.154Z,3.88
2022-12-31T12:17:42.651Z,2.53
2022-12-31T12:20:09.133Z,3.80
2022-12-31T12:22:35.636Z,3.17
2022-12-31T12:25:02.605Z,7.05
2022-12-31T12:27:29.565Z,2.90
2022-12-31T12:29:56.011Z,8.63
2022-12-31T12:32:22.525Z,12.75
2022-12-31T12:34:50.179Z,3.95
2022-12-31T12:37:17.316Z,4.63
2022-12-31T12:39:43.784Z,5.05
2022-12-31T12:42:10.749Z,3.70
2022-12-31T12:44:37.194Z,5.80
2022-12-31T12:47:03.755Z,3.60
2022-12-31T12:49:30.248Z,4.30
2022-12-31T12:51:57.236Z,5.75
2022-12-31T12:54:23.711Z,3.83
2022-12-31T12:56:50.159Z,4.20
2022-12-31T12:59:16.645Z,3.17
2022-12-31T13:01:43.742Z,2.38
2022-12-31T13:06:58.597Z,2.95
2022-12-31T13:09:25.060Z,5.55
2022-12-31T13:11:52.035Z,3.45
2022-12-31T13:14:18.529Z,5.72
2022-12-31T13:16:45.017Z,5.78
2022-12-31T13:19:11.548Z,5.25
2022-12-31T13:21:38.012Z,3.08
2022-12-31T13:24:04.999Z,3.17
2022-12-31T13:26:31.483Z,2.97
2022-12-31T13:28:57.945Z,2.15
2022-12-31T13:31:24.436Z,2.22
2022-12-31T13:33:50.938Z,3.42
2022-12-31T13:36:17.424Z,6.45
2022-12-31T13:38:43.912Z,1.55
2022-12-31T13:41:10.412Z,5.45
2022-12-31T13:43:36.939Z,7.18
2022-12-31T13:46:03.494Z,7.07
2022-12-31T13:48:30.528Z,3.30
2022-12-31T13:50:57.002Z,5.47
2022-12-31T13:53:23.506Z,7.95
2022-12-31T13:55:55.066Z,2.97
2022-12-31T13:58:23.753Z,2.60
2022-12-31T14:00:50.727Z,7.10
2022-12-31T14:03:17.180Z,6.57
2022-12-31T14:05:43.658Z,4.85
2022-12-31T14:08:10.110Z,4.63
2022-12-31T14:10:37.095Z,3.45
2022-12-31T14:13:03.549Z,5.88
2022-12-31T14:15:30.523Z,10.70
2022-12-31T14:17:57.489Z,7.60
2022-12-31T14:20:24.467Z,3.10
2022-12-31T14:22:50.915Z,2.70
2022-12-31T14:25:17.379Z,6.43
2022-12-31T14:27:44.336Z,5.80
2022-12-31T14:30:11.297Z,3.65
2022-12-31T14:32:38.263Z,4.68
2022-12-31T14:35:04.769Z,5.63
2022-12-31T14:37:31.263Z,7.22
2022-12-31T14:39:57.755Z,4.32
2022-12-31T14:42:24.241Z,5.65
2022-12-31T14:44:51.185Z,2.22
2022-12-31T14:47:18.172Z,4.38
2022-12-31T14:49:44.686Z,5.80
2022-12-31T14:52:11.213Z,3.63
2022-12-31T14:54:38.188Z,2.95
2022-12-31T14:57:04.668Z,5.47
2022-12-31T14:59:35.682Z,5.88
2022-12-31T15:02:03.916Z,7.50
2022-12-31T15:04:30.591Z,7.30
2022-12-31T15:06:57.078Z,7.03
2022-12-31T15:09:23.566Z,7.82
2022-12-31T15:11:50.055Z,6.07
2022-12-31T15:14:17.031Z,6.45
2022-12-31T15:16:43.516Z,5.97
2022-12-31T15:19:10.066Z,3.85
2022-12-31T15:21:36.557Z,4.68
2022-12-31T15:24:03.046Z,3.25
2022-12-31T15:26:29.529Z,6.20
2022-12-31T15:28:55.986Z,5.93
2022-12-31T15:31:22.529Z,5.85
2022-12-31T15:33:49.532Z,4.38
2022-12-31T15:36:16.014Z,5.00
2022-12-31T15:38:43.002Z,5.38
2022-12-31T15:41:09.456Z,7.57
2022-12-31T15:43:35.962Z,2.83
2022-12-31T15:46:02.463Z,3.35
2022-12-31T15:48:28.908Z,2.42
2022-12-31T15:50:55.352Z,10.38
2022-12-31T15:53:21.808Z,1.80
2022-12-31T15:55:48.276Z,7.70
2022-12-31T15:58:14.730Z,7.32
2022-12-31T16:00:41.248Z,6.03
2022-12-31T16:03:07.737Z,3.47
2022-12-31T16:05:34.741Z,1.80
2022-12-31T16:08:01.232Z,8.27
2022-12-31T16:10:27.699Z,5.30
2022-12-31T16:12:54.151Z,5.38
2022-12-31T16:15:21.134Z,6.45
2022-12-31T16:17:47.603Z,4.80
2022-12-31T16:20:14.057Z,5.65
2022-12-31T16:22:40.503Z,8.23
2022-12-31T16:27:53.908Z,4.57
2022-12-31T16:30:20.369Z,3.78
2022-12-31T16:32:47.295Z,4.32
2022-12-31T16:35:21.629Z,8.52
2022-12-31T16:37:49.750Z,6.45
2022-12-31T16:40:16.724Z,12.48
2022-12-31T16:42:44.602Z,4.60
2022-12-31T16:47:38.159Z,8.95
2022-12-31T16:50:04.694Z,7.22
2022-12-31T16:52:31.146Z,7.75
2022-12-31T16:54:57.619Z,4.65
2022-12-31T16:57:24.612Z,10.25
2022-12-31T16:59:51.108Z,8.13
2022-12-31T17:02:17.615Z,7.50
2022-12-31T17:04:48.322Z,10.25
2022-12-31T17:07:20.122Z,7.50
2022-12-31T17:09:47.120Z,11.25
2022-12-31T17:12:13.550Z,10.23
2022-12-31T17:14:40.055Z,10.35
2022-12-31T17:17:06.540Z,13.90
2022-12-31T17:19:33.488Z,10.40
2022-12-31T17:22:00.006Z,6.87
2022-12-31T17:24:26.496Z,8.18
2022-12-31T17:26:53.184Z,8.65
2022-12-31T17:29:24.321Z,11.98
2022-12-31T17:31:52.797Z,9.48
2022-12-31T17:34:19.784Z,9.55
2022-12-31T17:36:46.296Z,11.80
2022-12-31T17:39:12.762Z,11.65
2022-12-31T17:41:39.216Z,12.48
2022-12-31T17:44:05.661Z,10.15
2022-12-31T17:46:32.699Z,10.48
2022-12-31T17:48:59.515Z,9.88
2022-12-31T17:51:26.502Z,10.23
2022-12-31T17:53:52.973Z,13.47
2022-12-31T17:56:19.467Z,8.30
2022-12-31T17:58:45.993Z,9.63
2022-12-31T18:01:12.532Z,9.40
2022-12-31T18:03:39.046Z,10.48
2022-12-31T18:06:07.385Z,11.25
2022-12-31T18:08:35.646Z,11.50
2022-12-31T18:11:02.117Z,9.82
2022-12-31T18:13:28.568Z,15.07
2022-12-31T18:15:55.670Z,13.25
2022-12-31T18:18:25.181Z,15.02
2022-12-31T18:20:52.227Z,15.32
2022-12-31T18:23:18.719Z,17.77
2022-12-31T18:28:10.539Z,11.52
2022-12-31T18:30:37.008Z,15.65
2022-12-31T18:33:03.608Z,17.85
2022-12-31T18:38:16.975Z,16.35
2022-12-31T18:40:43.451Z,15.50
2022-12-31T18:43:10.399Z,19.90
2022-12-31T18:45:36.910Z,13.53
2022-12-31T18:48:03.428Z,14.13
2022-12-31T18:50:29.914Z,21.42
2022-12-31T18:52:56.918Z,14.35
2022-12-31T18:55:23.404Z,11.87
2022-12-31T18:57:49.924Z,10.13
2022-12-31T19:00:16.370Z,15.85
2022-12-31T19:02:42.886Z,13.05
2022-12-31T19:05:09.350Z,15.63
2022-12-31T19:07:35.853Z,12.48
2022-12-31T19:10:02.873Z,17.52
2022-12-31T19:12:29.362Z,24.83
2022-12-31T19:14:55.860Z,17.63
2022-12-31T19:17:22.384Z,13.10
2022-12-31T19:19:49.374Z,16.00
2022-12-31T19:22:15.821Z,18.57
2022-12-31T19:24:42.325Z,20.85
2022-12-31T19:27:08.838Z,13.68
2022-12-31T19:29:35.323Z,12.88
2022-12-31T19:32:01.887Z,13.98
2022-12-31T19:34:28.423Z,12.38
2022-12-31T19:36:54.891Z,19.95
2022-12-31T19:39:21.429Z,19.80
2022-12-31T19:41:52.997Z,15.43
2022-12-31T19:44:22.840Z,16.60
2022-12-31T19:46:49.415Z,15.48
2022-12-31T19:49:15.943Z,14.48
2022-12-31T19:51:42.475Z,14.80
2022-12-31T19:54:08.951Z,17.15
2022-12-31T19:56:35.388Z,13.40
2022-12-31T19:59:02.388Z,16.15
2022-12-31T20:01:28.946Z,17.80
2022-12-31T20:03:55.512Z,13.68
2022-12-31T20:06:22.019Z,13.27
2022-12-31T20:08:48.526Z,14.27
2022-12-31T20:11:15.000Z,13.50
2022-12-31T20:13:42.001Z,17.83
2022-12-31T20:16:08.531Z,13.30
2022-12-31T20:18:35.003Z,14.57
2022-12-31T20:21:01.504Z,14.20
2022-12-31T20:23:28.025Z,16.73
2022-12-31T20:25:54.527Z,13.73
2022-12-31T20:28:21.016Z,15.40
2022-12-31T20:30:47.521Z,18.10
2022-12-31T20:33:18.918Z,17.95
2022-12-31T20:35:45.719Z,13.60
2022-12-31T20:38:12.163Z,13.32
2022-12-31T20:40:44.582Z,13.73
2022-12-31T20:43:13.033Z,12.23
2022-12-31T20:45:39.510Z,13.45
2022-12-31T20:48:06.005Z,15.13
2022-12-31T20:50:32.450Z,14.43
2022-12-31T20:52:59.417Z,15.80
2022-12-31T20:55:26.373Z,18.33
2022-12-31T20:57:52.854Z,15.32
2022-12-31T21:00:19.333Z,16.25
2022-12-31T21:02:51.521Z,13.25
2022-12-31T21:05:23.060Z,14.38
2022-12-31T21:07:49.672Z,15.70
2022-12-31T21:10:16.122Z,14.95
2022-12-31T21:12:42.569Z,18.27
2022-12-31T21:15:09.023Z,14.23
2022-12-31T21:17:35.497Z,14.90
2022-12-31T21:20:02.506Z,13.02
2022-12-31T21:22:28.952Z,13.90
2022-12-31T21:24:55.399Z,13.10
2022-12-31T21:27:22.329Z,12.18
2022-12-31T21:30:17.021Z,15.77
2022-12-31T21:32:35.175Z,15.43
2022-12-31T21:35:40.339Z,16.73
2022-12-31T21:37:58.864Z,14.50
2022-12-31T21:40:27.397Z,16.02
2022-12-31T21:42:53.921Z,16.80
2022-12-31T21:45:20.393Z,15.38
2022-12-31T21:47:47.808Z,12.68
2022-12-31T21:50:14.462Z,18.55
2022-12-31T21:52:40.934Z,13.15
2022-12-31T21:55:07.385Z,16.45
2022-12-31T21:57:46.394Z,15.55
2022-12-31T22:00:44.145Z,15.13
2022-12-31T22:03:06.913Z,15.60
2022-12-31T22:05:33.396Z,14.82
2022-12-31T22:08:00.405Z,15.68
2022-12-31T22:10:26.857Z,12.60
2022-12-31T22:12:53.391Z,16.05
2022-12-31T22:15:19.890Z,14.02
2022-12-31T22:17:46.399Z,17.45
2022-12-31T22:20:28.880Z,12.23
2022-12-31T22:22:55.626Z,20.35
2022-12-31T22:25:22.612Z,15.55
2022-12-31T22:28:11.685Z,16.67
2022-12-31T22:30:35.558Z,14.57
2022-12-31T22:33:02.026Z,17.85
2022-12-31T22:35:28.486Z,24.02
2022-12-31T22:37:57.522Z,18.20
2022-12-31T22:40:25.595Z,16.85
2022-12-31T22:42:52.063Z,15.55
2022-12-31T22:45:18.541Z,16.58
2022-12-31T22:47:44.979Z,18.83
2022-12-31T22:50:11.460Z,18.08
2022-12-31T22:52:38.388Z,16.88
2022-12-31T22:55:04.879Z,20.27
2022-12-31T22:57:31.358Z,21.13
2022-12-31T22:59:58.300Z,21.48
2022-12-31T23:02:24.773Z,21.65
2022-12-31T23:04:51.250Z,21.88
2022-12-31T23:07:17.690Z,21.98
2022-12-31T23:09:44.679Z,21.77
2022-12-31T23:12:11.167Z,23.77
2022-12-31T23:14:37.808Z,28.85
2022-12-31T23:17:29.139Z,23.65
2022-12-31T23:19:50.667Z,20.63
2022-12-31T23:22:17.172Z,24.52
2022-12-31T23:24:43.658Z,23.98
2022-12-31T23:27:10.099Z,26.02
2022-12-31T23:29:41.956Z,28.00
2022-12-31T23:32:12.389Z,29.58
2022-12-31T23:34:38.887Z,29.67
2022-12-31T23:37:05.422Z,35.72
2022-12-31T23:39:31.869Z,33.88
2022-12-31T23:41:58.358Z,36.45
2022-12-31T23:44:24.833Z,40.05
2022-12-31T23:46:51.364Z,38.20
2022-12-31T23:49:18.327Z,41.90
2022-12-31T23:51:44.844Z,37.28
2022-12-31T23:54:11.324Z,43.15
2022-12-31T23:56:37.827Z,43.20
2022-12-31T23:59:04.315Z,52.60
